Time;durP1;ratioP1;P1;durP2;ratioP2;P2;SDS_P1;SDS_P2;PMS_P1;PMS_P2;Temp;Humidity;BMP_temperature;BMP_pressure;BME280_temperature;BME280_humidity;BME280_pressure;Samples;Min_cycle;Max_cycle;Signal;HPM_P1;HPM_P2
2022/11/20 00:00:58;;;;;;;21.23;19.23;;;1.10;99.90;;;;;;5073637;28;20434;-75
2022/11/20 00:03:26;;;;;;;21.40;19.27;;;1.10;99.90;;;;;;5072292;28;20469;-75
2022/11/20 00:06:00;;;;;;;22.07;18.97;;;1.10;99.90;;;;;;5073638;28;20549;-75
2022/11/20 00:08:28;;;;;;;20.77;18.57;;;1.10;99.90;;;;;;5072296;28;20506;-75
2022/11/20 00:10:56;;;;;;;22.20;18.97;;;1.10;99.90;;;;;;5073314;28;20479;-75
2022/11/20 00:13:24;;;;;;;19.17;17.00;;;1.10;99.90;;;;;;5072237;28;20991;-75
2022/11/20 00:15:58;;;;;;;19.83;17.73;;;1.10;99.90;;;;;;5073735;28;20441;-75
2022/11/20 00:18:26;;;;;;;20.70;18.50;;;1.10;99.90;;;;;;5071955;28;20425;-75
2022/11/20 00:21:02;;;;;;;21.50;19.23;;;1.20;99.90;;;;;;5072032;28;20466;-75
2022/11/20 00:23:30;;;;;;;21.43;17.10;;;1.20;99.90;;;;;;5071904;28;20465;-75
2022/11/20 00:26:03;;;;;;;25.77;21.27;;;1.20;99.90;;;;;;5078758;28;20449;-75
2022/11/20 00:28:31;;;;;;;20.87;18.67;;;1.20;99.90;;;;;;5074749;28;20414;-75
2022/11/20 00:31:03;;;;;;;19.70;17.60;;;1.20;99.90;;;;;;5073799;28;20505;-75
2022/11/20 00:33:32;;;;;;;20.60;18.50;;;1.20;99.90;;;;;;5073495;28;20471;-75
2022/11/20 00:36:06;;;;;;;22.20;19.90;;;1.20;99.90;;;;;;5076205;28;20471;-75
2022/11/20 00:38:34;;;;;;;21.27;19.07;;;1.20;99.90;;;;;;5075692;28;20462;-75
2022/11/20 00:41:05;;;;;;;20.50;18.43;;;1.20;99.90;;;;;;5077370;28;20437;-75
2022/11/20 00:43:33;;;;;;;21.53;19.33;;;1.20;99.90;;;;;;5077006;28;20465;-75
2022/11/20 00:46:05;;;;;;;21.10;19.10;;;1.20;99.90;;;;;;5076660;28;20484;-75
2022/11/20 00:48:34;;;;;;;19.80;17.70;;;1.20;99.90;;;;;;5077048;28;20414;-75
2022/11/20 00:51:03;;;;;;;21.40;19.30;;;1.20;99.90;;;;;;5076505;28;20450;-75
2022/11/20 00:53:32;;;;;;;21.90;19.80;;;1.20;99.90;;;;;;5076746;28;20473;-75
2022/11/20 00:56:01;;;;;;;20.10;18.10;;;1.20;99.90;;;;;;5076779;28;20430;-75
2022/11/20 00:58:32;;;;;;;20.17;18.07;;;1.20;99.90;;;;;;5076771;28;20476;-76
2022/11/20 01:01:05;;;;;;;19.83;17.83;;;1.30;99.90;;;;;;5076890;28;20410;-75
2022/11/20 01:03:34;;;;;;;20.17;18.13;;;1.30;99.90;;;;;;5077154;28;20466;-75
2022/11/20 01:06:04;;;;;;;20.37;18.37;;;1.30;99.90;;;;;;5076688;28;20434;-76
2022/11/20 01:08:33;;;;;;;19.10;17.30;;;1.30;99.90;;;;;;5076416;28;20437;-75
2022/11/20 01:11:02;;;;;;;20.50;17.50;;;1.30;99.90;;;;;;5076833;28;20490;-75
2022/11/20 01:13:38;;;;;;;21.50;19.30;;;1.30;99.90;;;;;;5075415;28;20481;-75
2022/11/20 01:16:08;;;;;;;20.83;18.63;;;1.30;99.90;;;;;;5075369;28;20433;-75
2022/11/20 01:18:38;;;;;;;22.17;19.90;;;1.30;99.90;;;;;;5076407;28;20468;-75
2022/11/20 01:21:09;;;;;;;20.03;17.80;;;1.30;99.90;;;;;;5074869;28;20442;-75
2022/11/20 01:23:39;;;;;;;21.03;18.93;;;1.30;99.90;;;;;;5076342;28;20454;-75
2022/11/20 01:26:10;;;;;;;22.07;19.70;;;1.30;99.90;;;;;;5076166;28;20446;-75
2022/11/20 01:28:39;;;;;;;21.60;19.33;;;1.40;99.90;;;;;;5075918;28;20446;-75
2022/11/20 01:31:12;;;;;;;21.67;19.37;;;1.40;99.90;;;;;;5076015;28;20433;-75
2022/11/20 01:33:42;;;;;;;22.77;20.50;;;1.40;99.90;;;;;;5076542;28;20524;-75
2022/11/20 01:36:12;;;;;;;21.83;18.17;;;1.40;99.90;;;;;;5075833;28;20438;-75
2022/11/20 01:38:41;;;;;;;20.97;18.77;;;1.40;99.90;;;;;;5076481;28;20464;-75
2022/11/20 01:41:10;;;;;;;20.17;17.87;;;1.40;99.90;;;;;;5075046;28;20453;-75
2022/11/20 01:43:37;;;;;;;19.57;17.07;;;1.40;99.90;;;;;;5075708;28;20458;-75
2022/11/20 01:46:14;;;;;;;19.33;17.33;;;1.40;99.90;;;;;;5075298;28;20511;-75
2022/11/20 01:48:51;;;;;;;20.53;16.73;;;1.40;99.90;;;;;;5076120;28;20421;-75
2022/11/20 01:51:27;;;;;;;21.27;19.17;;;1.40;99.90;;;;;;5075793;28;20449;-75
2022/11/20 01:53:58;;;;;;;20.30;18.00;;;1.40;99.90;;;;;;5074662;28;20557;-75
2022/11/20 01:56:29;;;;;;;20.70;18.63;;;1.40;99.90;;;;;;5076180;28;20469;-75
2022/11/20 01:59:01;;;;;;;20.77;18.57;;;1.40;99.90;;;;;;5075559;28;20515;-75
2022/11/20 02:01:29;;;;;;;19.70;17.70;;;1.40;99.90;;;;;;5076145;28;20479;-75
2022/11/20 02:03:59;;;;;;;20.33;18.50;;;1.40;99.90;;;;;;5074241;28;20469;-75
2022/11/20 02:06:32;;;;;;;20.90;18.80;;;1.40;99.90;;;;;;5074176;28;20449;-75
2022/11/20 02:09:00;;;;;;;20.83;18.27;;;1.50;99.90;;;;;;5074141;28;20877;-75
2022/11/20 02:11:28;;;;;;;21.33;19.23;;;1.50;99.90;;;;;;5075313;28;20442;-75
2022/11/20 02:13:55;;;;;;;22.33;20.00;;;1.50;99.90;;;;;;5074013;28;20989;-75
2022/11/20 02:16:26;;;;;;;23.30;20.90;;;1.50;99.90;;;;;;5075556;28;20495;-75
2022/11/20 02:18:56;;;;;;;27.97;24.47;;;1.50;99.90;;;;;;5074127;28;20844;-75
2022/11/20 02:21:35;;;;;;;31.10;25.90;;;1.50;99.90;;;;;;5074284;28;20443;-75
2022/11/20 02:24:08;;;;;;;29.47;26.07;;;1.50;99.90;;;;;;5075374;28;20464;-75
2022/11/20 02:26:42;;;;;;;28.03;25.03;;;1.50;99.90;;;;;;5075360;28;20814;-75
2022/11/20 02:29:10;;;;;;;30.43;26.90;;;1.40;99.90;;;;;;5073990;28;20495;-75
2022/11/20 02:31:42;;;;;;;29.60;26.37;;;1.50;99.90;;;;;;5073796;28;20866;-75
2022/11/20 02:34:10;;;;;;;29.60;24.90;;;1.50;99.90;;;;;;5075006;28;20458;-75
2022/11/20 02:36:42;;;;;;;33.60;26.87;;;1.50;99.90;;;;;;5074849;28;20434;-76
2022/11/20 02:39:16;;;;;;;28.70;22.23;;;1.50;99.90;;;;;;5075082;28;20529;-75
2022/11/20 02:41:44;;;;;;;27.33;24.17;;;1.50;99.90;;;;;;5073919;28;20977;-75
2022/11/20 02:44:13;;;;;;;31.57;24.33;;;1.50;99.90;;;;;;5074632;28;20802;-75
2022/11/20 02:46:41;;;;;;;29.40;25.10;;;1.50;99.90;;;;;;5074782;28;20459;-75
2022/11/20 02:49:09;;;;;;;25.80;23.23;;;1.50;99.90;;;;;;5074571;28;20466;-75
2022/11/20 02:51:37;;;;;;;25.13;21.53;;;1.50;99.90;;;;;;5074513;28;20500;-75
2022/11/20 02:54:05;;;;;;;27.23;21.80;;;1.50;99.90;;;;;;5073252;28;21016;-75
2022/11/20 02:56:35;;;;;;;24.00;20.50;;;1.50;99.90;;;;;;5074394;28;20453;-75
2022/11/20 02:59:04;;;;;;;26.40;21.20;;;1.50;99.90;;;;;;5074493;28;20472;-75
2022/11/20 03:01:32;;;;;;;24.90;20.00;;;1.50;99.90;;;;;;5073472;28;20827;-75
2022/11/20 03:04:00;;;;;;;17.43;15.53;;;1.50;99.90;;;;;;5074189;28;20578;-75
2022/11/20 03:06:28;;;;;;;21.27;17.60;;;1.50;99.90;;;;;;5074973;28;20442;-75
2022/11/20 03:08:56;;;;;;;19.70;16.87;;;1.50;99.90;;;;;;5074582;28;20480;-75
2022/11/20 03:11:24;;;;;;;19.80;17.50;;;1.50;99.90;;;;;;5074089;28;20959;-76
2022/11/20 03:13:54;;;;;;;19.00;15.43;;;1.50;99.90;;;;;;5075360;28;20501;-75
2022/11/20 03:16:23;;;;;;;17.30;15.50;;;1.50;99.90;;;;;;5075153;28;20996;-75
2022/11/20 03:18:53;;;;;;;18.03;16.07;;;1.50;99.90;;;;;;5075637;28;20474;-76
2022/11/20 03:21:21;;;;;;;18.17;15.70;;;1.50;99.90;;;;;;5075418;28;20461;-75
2022/11/20 03:23:49;;;;;;;18.17;14.30;;;1.50;99.90;;;;;;5074324;28;20463;-75
2022/11/20 03:26:20;;;;;;;20.93;16.60;;;1.50;99.90;;;;;;5073811;28;20950;-75
2022/11/20 03:28:51;;;;;;;17.07;15.13;;;1.60;99.90;;;;;;5074919;28;20898;-76
2022/11/20 03:31:23;;;;;;;15.93;13.70;;;1.50;99.90;;;;;;5075487;28;20501;-75
2022/11/20 03:33:51;;;;;;;17.10;14.67;;;1.60;99.90;;;;;;5074989;28;21057;-75
2022/11/20 03:36:21;;;;;;;15.00;12.30;;;1.60;99.90;;;;;;5075394;28;20444;-75
2022/11/20 03:38:49;;;;;;;17.30;15.40;;;1.60;99.90;;;;;;5075258;28;20966;-75
2022/11/20 03:41:19;;;;;;;14.00;12.50;;;1.60;99.90;;;;;;5074721;28;20487;-75
2022/11/20 03:43:49;;;;;;;14.30;12.80;;;1.60;99.90;;;;;;5074909;28;20463;-75
2022/11/20 03:46:17;;;;;;;15.13;13.60;;;1.60;99.90;;;;;;5074405;28;20442;-75
2022/11/20 03:48:47;;;;;;;14.40;12.20;;;1.60;99.90;;;;;;5072783;28;20458;-75
2022/11/20 03:51:21;;;;;;;13.20;11.90;;;1.50;99.90;;;;;;5072810;28;20461;-75
2022/11/20 03:53:51;;;;;;;14.80;12.50;;;1.60;99.90;;;;;;5072749;28;20469;-75
2022/11/20 03:56:21;;;;;;;16.60;13.47;;;1.60;99.90;;;;;;5074398;28;20437;-76
2022/11/20 03:58:49;;;;;;;15.10;12.37;;;1.60;99.90;;;;;;5072527;28;20473;-75
2022/11/20 04:01:19;;;;;;;13.30;11.93;;;1.60;99.90;;;;;;5074345;28;20829;-75
2022/11/20 04:03:49;;;;;;;13.17;11.80;;;1.60;99.90;;;;;;5072698;28;21028;-75
2022/11/20 04:06:19;;;;;;;14.50;12.50;;;1.60;99.90;;;;;;5072818;28;20521;-75
2022/11/20 04:08:47;;;;;;;13.67;12.37;;;1.60;99.90;;;;;;5075535;28;20473;-76
2022/11/20 04:11:22;;;;;;;14.83;12.87;;;1.60;99.90;;;;;;5076783;28;20429;-76
2022/11/20 04:13:57;;;;;;;14.87;12.50;;;1.60;99.90;;;;;;5078352;28;20457;-76
2022/11/20 04:16:45;;;;;;;13.90;12.43;;;1.60;99.90;;;;;;5079437;28;20460;-76
2022/11/20 04:19:16;;;;;;;15.50;11.83;;;1.70;99.90;;;;;;5080904;28;20984;-76
2022/11/20 04:21:45;;;;;;;14.97;13.13;;;1.60;99.90;;;;;;5078064;28;20512;-76
2022/11/20 04:24:13;;;;;;;18.07;14.83;;;1.60;99.90;;;;;;5077110;28;20477;-76
2022/11/20 04:26:41;;;;;;;15.73;14.13;;;1.60;99.90;;;;;;5078783;28;20745;-77
2022/11/20 04:29:11;;;;;;;14.00;12.60;;;1.60;99.90;;;;;;5078195;28;20443;-76
2022/11/20 04:31:40;;;;;;;14.00;12.50;;;1.70;99.90;;;;;;5076530;28;20442;-76
2022/11/20 04:34:08;;;;;;;14.77;13.20;;;1.70;99.90;;;;;;5076293;28;20516;-76
2022/11/20 04:36:38;;;;;;;12.97;11.60;;;1.60;99.90;;;;;;5076712;28;20853;-77
2022/11/20 04:39:07;;;;;;;11.70;9.30;;;1.60;99.90;;;;;;5077717;28;20469;-76
2022/11/20 04:41:37;;;;;;;12.90;11.50;;;1.60;99.90;;;;;;5076295;28;20453;-76
2022/11/20 04:44:06;;;;;;;14.53;10.90;;;1.60;99.90;;;;;;5077956;28;20510;-76
2022/11/20 04:46:37;;;;;;;13.27;11.63;;;1.60;99.90;;;;;;5076290;28;20452;-76
2022/11/20 04:49:05;;;;;;;13.23;11.93;;;1.60;99.90;;;;;;5076586;28;20442;-76
2022/11/20 04:51:34;;;;;;;12.80;10.97;;;1.60;99.90;;;;;;5076470;28;20451;-76
2022/11/20 04:54:03;;;;;;;12.67;11.37;;;1.60;99.90;;;;;;5076668;28;20480;-76
2022/11/20 04:56:31;;;;;;;13.30;11.90;;;1.60;99.90;;;;;;5076456;28;20458;-77
2022/11/20 04:59:01;;;;;;;13.37;11.93;;;1.60;99.90;;;;;;5077540;28;20487;-77
2022/11/20 05:01:30;;;;;;;12.57;11.17;;;1.60;99.90;;;;;;5076571;28;20448;-76
2022/11/20 05:03:58;;;;;;;12.50;11.00;;;1.60;99.90;;;;;;5076368;28;20998;-76
2022/11/20 05:06:26;;;;;;;11.30;10.20;;;1.60;99.90;;;;;;5077765;28;20464;-77
2022/11/20 05:08:54;;;;;;;12.63;11.27;;;1.60;99.90;;;;;;5077903;28;20437;-77
2022/11/20 05:11:24;;;;;;;12.40;11.10;;;1.60;99.90;;;;;;5076261;28;20838;-77
2022/11/20 05:13:53;;;;;;;12.93;11.63;;;1.60;99.90;;;;;;5076348;28;20533;-77
2022/11/20 05:16:23;;;;;;;12.37;11.17;;;1.70;99.90;;;;;;5077828;28;20464;-77
2022/11/20 05:18:52;;;;;;;12.03;10.83;;;1.70;99.90;;;;;;5076108;28;20435;-76
2022/11/20 05:21:21;;;;;;;12.40;11.17;;;1.70;99.90;;;;;;5075933;28;20445;-77
2022/11/20 05:23:49;;;;;;;12.03;10.67;;;1.70;99.90;;;;;;5076863;28;20501;-77
2022/11/20 05:26:21;;;;;;;12.37;11.17;;;1.70;99.90;;;;;;5076123;28;20543;-77
2022/11/20 05:28:50;;;;;;;11.73;10.53;;;1.60;99.90;;;;;;5077341;28;20514;-77
2022/11/20 05:31:20;;;;;;;12.30;11.10;;;1.70;99.90;;;;;;5076077;28;20446;-77
2022/11/20 05:33:55;;;;;;;12.83;11.53;;;1.60;99.90;;;;;;5077331;28;20967;-77
2022/11/20 05:36:23;;;;;;;13.33;11.87;;;1.60;99.90;;;;;;5076938;28;20952;-77
2022/11/20 05:38:51;;;;;;;9.77;8.77;;;1.60;99.90;;;;;;5076860;28;20447;-77
2022/11/20 05:41:27;;;;;;;13.53;12.00;;;1.60;99.90;;;;;;5077050;28;20516;-77
2022/11/20 05:43:57;;;;;;;12.57;11.27;;;1.60;99.90;;;;;;5077235;28;20459;-77
2022/11/20 05:46:26;;;;;;;13.47;12.27;;;1.70;99.90;;;;;;5076607;28;20429;-77
2022/11/20 05:48:57;;;;;;;12.90;11.50;;;1.70;99.90;;;;;;5077469;28;20427;-77
2022/11/20 05:51:26;;;;;;;13.17;11.50;;;1.60;99.90;;;;;;5075711;28;20458;-77
2022/11/20 05:53:54;;;;;;;13.87;12.17;;;1.60;99.90;;;;;;5076870;28;20480;-77
2022/11/20 05:56:23;;;;;;;13.63;12.13;;;1.60;99.90;;;;;;5076898;28;20809;-77
2022/11/20 05:58:51;;;;;;;14.10;12.60;;;1.70;99.90;;;;;;5075477;28;20454;-77
2022/11/20 06:01:22;;;;;;;12.90;11.60;;;1.70;99.90;;;;;;5076605;28;20504;-77
2022/11/20 06:03:51;;;;;;;12.90;11.60;;;1.70;99.90;;;;;;5076962;28;20507;-77
2022/11/20 06:06:20;;;;;;;14.50;13.00;;;1.70;99.90;;;;;;5076745;28;20450;-76
2022/11/20 06:08:48;;;;;;;14.07;12.67;;;1.70;99.90;;;;;;5076516;28;20444;-77
2022/11/20 06:11:17;;;;;;;15.27;13.67;;;1.70;99.90;;;;;;5076967;28;20430;-77
2022/11/20 06:13:46;;;;;;;14.20;12.80;;;1.70;99.90;;;;;;5076605;28;20460;-76
2022/11/20 06:16:16;;;;;;;16.93;13.13;;;1.70;99.90;;;;;;5076540;28;20437;-77
2022/11/20 06:18:46;;;;;;;13.40;12.07;;;1.70;99.90;;;;;;5075938;28;20442;-77
2022/11/20 06:21:17;;;;;;;14.10;12.60;;;1.70;99.90;;;;;;5075539;28;20509;-77
2022/11/20 06:23:46;;;;;;;12.50;11.20;;;1.70;99.90;;;;;;5076492;28;20465;-76
2022/11/20 06:26:17;;;;;;;15.70;14.00;;;1.70;99.90;;;;;;5075393;28;20453;-77
2022/11/20 06:28:45;;;;;;;15.23;13.73;;;1.70;99.90;;;;;;5076282;28;20451;-77
2022/11/20 06:31:15;;;;;;;13.70;12.30;;;1.70;99.90;;;;;;5074548;28;20944;-77
2022/11/20 06:33:45;;;;;;;16.17;14.57;;;1.70;99.90;;;;;;5076381;28;20463;-77
2022/11/20 06:36:15;;;;;;;14.80;13.30;;;1.70;99.90;;;;;;5074784;28;20453;-77
2022/11/20 06:38:44;;;;;;;14.73;13.13;;;1.70;99.90;;;;;;5075966;28;20439;-77
2022/11/20 06:41:15;;;;;;;14.23;12.73;;;1.70;99.90;;;;;;5076061;28;20978;-77
2022/11/20 06:43:44;;;;;;;15.47;13.87;;;1.70;99.90;;;;;;5075442;28;20484;-77
2022/11/20 06:46:13;;;;;;;18.27;14.80;;;1.70;99.90;;;;;;5076205;28;20430;-77
2022/11/20 06:48:41;;;;;;;18.03;16.13;;;1.60;99.90;;;;;;5074540;28;20451;-77
2022/11/20 06:51:11;;;;;;;14.93;13.37;;;1.70;99.90;;;;;;5075710;28;20802;-77
2022/11/20 06:53:39;;;;;;;15.47;13.77;;;1.70;99.90;;;;;;5076753;28;20463;-77
2022/11/20 06:56:08;;;;;;;14.80;13.30;;;1.60;99.90;;;;;;5076262;28;20438;-77
2022/11/20 06:58:36;;;;;;;15.70;13.93;;;1.70;99.90;;;;;;5074744;28;20987;-77
2022/11/20 07:01:06;;;;;;;20.40;17.50;;;1.70;99.90;;;;;;5074443;28;20491;-77
2022/11/20 07:03:34;;;;;;;17.90;16.10;;;1.70;99.90;;;;;;5074522;28;20505;-76
2022/11/20 07:06:03;;;;;;;17.37;15.67;;;1.70;99.90;;;;;;5076313;28;20451;-77
2022/11/20 07:08:33;;;;;;;17.27;15.57;;;1.70;99.90;;;;;;5074585;28;20465;-77
2022/11/20 07:11:03;;;;;;;17.83;16.03;;;1.70;99.90;;;;;;5074190;28;20857;-77
2022/11/20 07:13:31;;;;;;;17.03;15.23;;;1.70;99.90;;;;;;5074274;28;20469;-77
2022/11/20 07:16:00;;;;;;;17.13;15.43;;;1.70;99.90;;;;;;5073976;28;20449;-77
2022/11/20 07:18:28;;;;;;;17.73;15.90;;;1.70;99.90;;;;;;5075654;28;20434;-77
2022/11/20 07:20:56;;;;;;;17.03;14.80;;;1.70;99.90;;;;;;5074040;28;20816;-77
2022/11/20 07:23:24;;;;;;;17.23;14.13;;;1.60;99.90;;;;;;5075381;28;20511;-77
2022/11/20 07:25:54;;;;;;;16.27;14.57;;;1.60;99.90;;;;;;5078361;28;20450;-77
2022/11/20 07:28:24;;;;;;;15.73;14.20;;;1.60;99.90;;;;;;5077459;28;20445;-77
2022/11/20 07:30:52;;;;;;;17.53;15.77;;;1.60;99.90;;;;;;5076551;28;20487;-77
2022/11/20 07:33:20;;;;;;;16.73;14.63;;;1.60;99.90;;;;;;5077138;28;20466;-77
2022/11/20 07:35:48;;;;;;;16.23;14.53;;;1.60;99.90;;;;;;5075493;28;20466;-77
2022/11/20 07:38:19;;;;;;;16.73;14.93;;;1.60;99.90;;;;;;5076506;28;20416;-77
2022/11/20 07:40:48;;;;;;;15.90;14.30;;;1.60;99.90;;;;;;5075276;28;20817;-77
2022/11/20 07:43:18;;;;;;;16.70;14.33;;;1.60;99.90;;;;;;5074339;28;20471;-77
2022/11/20 07:45:46;;;;;;;17.73;16.00;;;1.60;99.90;;;;;;5074767;28;20445;-76
2022/11/20 07:48:14;;;;;;;17.90;16.00;;;1.60;99.90;;;;;;5074537;28;20953;-77
2022/11/20 07:50:42;;;;;;;17.57;15.77;;;1.60;99.90;;;;;;5074416;28;20464;-77
2022/11/20 07:53:10;;;;;;;17.53;15.83;;;1.60;99.90;;;;;;5074328;28;20470;-77
2022/11/20 07:55:38;;;;;;;16.73;15.03;;;1.60;99.90;;;;;;5075648;28;20458;-77
2022/11/20 07:58:06;;;;;;;17.40;15.63;;;1.60;99.90;;;;;;5073996;28;20445;-76
2022/11/20 08:00:35;;;;;;;18.23;16.37;;;1.70;99.90;;;;;;5075812;28;20844;-77
2022/11/20 08:03:05;;;;;;;17.27;15.57;;;1.70;99.90;;;;;;5074000;28;20561;-77
2022/11/20 08:05:33;;;;;;;15.80;14.20;;;1.70;99.90;;;;;;5074962;28;20443;-77
2022/11/20 08:08:01;;;;;;;15.67;14.17;;;1.70;99.90;;;;;;5074876;28;20835;-76
2022/11/20 08:10:29;;;;;;;17.43;15.77;;;1.70;99.90;;;;;;5073197;28;20490;-76
2022/11/20 08:15:49;;;;;;;18.80;16.90;;;1.80;99.90;;;;;;5079343;28;20426;-76
2022/11/20 08:18:18;;;;;;;17.07;15.30;;;1.80;99.90;;;;;;5075817;28;20425;-76
2022/11/20 08:21:04;;;;;;;18.40;16.60;;;1.80;99.90;;;;;;5074548;28;20458;-76
2022/11/20 08:23:32;;;;;;;16.83;14.90;;;1.80;99.90;;;;;;5073480;28;20485;-76
2022/11/20 08:26:00;;;;;;;16.87;15.10;;;1.80;99.90;;;;;;5073202;28;20548;-76
2022/11/20 08:28:28;;;;;;;15.70;14.13;;;1.80;99.90;;;;;;5072852;28;20951;-76
2022/11/20 08:31:01;;;;;;;13.53;12.23;;;1.80;99.90;;;;;;5074265;28;20504;-76
2022/11/20 08:33:30;;;;;;;16.80;15.20;;;1.90;99.90;;;;;;5074017;28;20447;-76
2022/11/20 08:36:00;;;;;;;16.10;14.47;;;1.90;99.90;;;;;;5073837;28;20443;-76
2022/11/20 08:38:29;;;;;;;17.03;15.20;;;1.90;99.90;;;;;;5072520;28;20450;-76
2022/11/20 08:43:46;;;;;;;17.97;15.20;;;1.90;99.90;;;;;;5072303;28;20574;-76
2022/11/20 08:46:15;;;;;;;17.57;15.77;;;1.90;99.90;;;;;;5072240;28;20446;-76
2022/11/20 08:48:44;;;;;;;17.07;15.37;;;1.90;99.90;;;;;;5073144;28;20446;-77
2022/11/20 08:51:13;;;;;;;17.03;14.40;;;1.90;99.90;;;;;;5072345;28;20454;-77
2022/11/20 08:53:41;;;;;;;18.10;15.10;;;1.90;99.90;;;;;;5072467;28;20514;-77
2022/11/20 08:56:10;;;;;;;15.93;14.33;;;1.90;99.90;;;;;;5075795;28;20511;-77
2022/11/20 08:58:38;;;;;;;16.27;14.63;;;1.90;99.90;;;;;;5076675;28;20982;-77
2022/11/20 09:01:30;;;;;;;17.43;14.23;;;1.90;99.90;;;;;;5076290;28;20522;-77
2022/11/20 09:03:59;;;;;;;16.17;14.60;;;1.90;99.90;;;;;;5077242;28;20451;-76
2022/11/20 09:06:27;;;;;;;16.40;14.80;;;2.00;99.90;;;;;;5075774;28;20452;-77
2022/11/20 09:08:56;;;;;;;16.20;14.30;;;2.00;99.90;;;;;;5077354;28;20445;-77
2022/11/20 09:11:29;;;;;;;17.00;14.90;;;2.00;99.90;;;;;;5075716;28;20873;-77
2022/11/20 09:13:57;;;;;;;15.53;14.03;;;2.00;99.90;;;;;;5075499;28;20516;-77
2022/11/20 09:16:25;;;;;;;17.07;15.40;;;2.00;99.90;;;;;;5076912;28;20924;-77
2022/11/20 09:18:54;;;;;;;16.93;14.93;;;2.10;99.90;;;;;;5075438;28;20465;-76
2022/11/20 09:21:42;;;;;;;15.30;13.80;;;2.10;99.90;;;;;;5076937;28;20555;-77
2022/11/20 09:24:15;;;;;;;19.67;15.90;;;2.10;99.90;;;;;;5075470;28;20564;-76
2022/11/20 09:26:51;;;;;;;16.87;15.17;;;2.10;99.90;;;;;;5075784;28;20482;-77
2022/11/20 09:29:19;;;;;;;17.60;15.90;;;2.10;99.90;;;;;;5076894;28;20444;-77
2022/11/20 09:31:47;;;;;;;16.87;15.07;;;2.10;99.90;;;;;;5077436;28;20434;-77
2022/11/20 09:34:17;;;;;;;18.67;16.77;;;2.10;99.90;;;;;;5076765;28;20827;-77
2022/11/20 09:36:46;;;;;;;20.77;17.73;;;2.10;99.90;;;;;;5076227;28;20471;-77
2022/11/20 09:39:14;;;;;;;18.03;16.20;;;2.10;99.90;;;;;;5077300;28;20501;-77
2022/11/20 09:41:57;;;;;;;19.20;17.27;;;2.10;99.90;;;;;;5075593;28;20480;-77
2022/11/20 09:44:52;;;;;;;17.50;15.70;;;2.10;99.90;;;;;;5075748;28;20555;-77
2022/11/20 09:47:32;;;;;;;18.20;16.40;;;2.10;99.90;;;;;;5075718;28;20497;-77
2022/11/20 09:50:19;;;;;;;18.50;16.70;;;2.20;99.90;;;;;;5077272;28;20425;-77
2022/11/20 09:52:59;;;;;;;18.70;16.90;;;2.20;99.90;;;;;;5075579;28;20490;-76
2022/11/20 09:55:30;;;;;;;17.13;15.53;;;2.20;99.90;;;;;;5076759;28;20782;-77
2022/11/20 09:58:00;;;;;;;17.83;16.20;;;2.20;99.90;;;;;;5075231;28;20440;-77
2022/11/20 10:00:30;;;;;;;17.37;15.67;;;2.20;99.90;;;;;;5076412;28;20487;-77
2022/11/20 10:03:03;;;;;;;17.10;15.40;;;2.20;99.90;;;;;;5075133;28;20482;-77
2022/11/20 10:05:40;;;;;;;18.00;16.20;;;2.20;99.90;;;;;;5076685;28;20425;-77
2022/11/20 10:08:16;;;;;;;19.27;17.20;;;2.20;99.90;;;;;;5075853;28;20421;-77
2022/11/20 10:10:47;;;;;;;17.47;15.70;;;2.20;99.90;;;;;;5075199;28;21062;-77
2022/11/20 10:13:37;;;;;;;18.10;15.53;;;2.20;99.90;;;;;;5074637;28;20608;-77
2022/11/20 10:16:18;;;;;;;17.03;15.43;;;2.30;99.90;;;;;;5076326;28;20418;-77
2022/11/20 10:19:00;;;;;;;16.53;14.83;;;2.30;99.90;;;;;;5074516;28;20453;-77
2022/11/20 10:21:41;;;;;;;17.77;15.83;;;2.20;99.90;;;;;;5074339;28;20526;-77
2022/11/20 10:24:39;;;;;;;16.73;14.33;;;2.30;99.90;;;;;;5073992;28;20524;-77
2022/11/20 10:27:22;;;;;;;16.87;15.10;;;2.30;99.90;;;;;;5075237;28;20844;-77
2022/11/20 10:30:01;;;;;;;15.43;13.90;;;2.30;99.90;;;;;;5075910;28;20419;-77
2022/11/20 10:32:36;;;;;;;15.90;14.30;;;2.30;99.90;;;;;;5073764;28;20471;-77
2022/11/20 10:35:15;;;;;;;16.90;15.20;;;2.30;99.90;;;;;;5073879;28;20961;-77
2022/11/20 10:37:48;;;;;;;17.67;15.90;;;2.30;99.90;;;;;;5075090;28;20452;-77
2022/11/20 10:40:28;;;;;;;18.10;16.20;;;2.30;99.90;;;;;;5073623;28;20448;-77
2022/11/20 10:43:02;;;;;;;16.70;14.80;;;2.40;99.90;;;;;;5073398;28;20492;-77
2022/11/20 10:45:46;;;;;;;15.90;14.20;;;2.40;99.90;;;;;;5075207;28;20418;-77
2022/11/20 10:48:18;;;;;;;16.50;14.90;;;2.50;99.90;;;;;;5073346;28;20466;-76
2022/11/20 10:50:55;;;;;;;17.73;15.80;;;2.40;99.90;;;;;;5075662;28;20453;-78
2022/11/20 10:53:41;;;;;;;15.73;14.03;;;2.40;99.90;;;;;;5076738;28;20821;-78
2022/11/20 10:56:19;;;;;;;15.33;13.83;;;2.40;99.90;;;;;;5076303;28;20410;-77
2022/11/20 10:59:12;;;;;;;15.20;13.23;;;2.40;99.90;;;;;;5074172;28;20513;-77
2022/11/20 11:01:42;;;;;;;13.50;12.20;;;2.40;99.90;;;;;;5074074;28;20454;-77
2022/11/20 11:04:27;;;;;;;14.30;12.90;;;2.50;99.90;;;;;;5073850;28;20462;-77
2022/11/20 11:06:59;;;;;;;13.63;12.23;;;2.50;99.90;;;;;;5074509;28;20445;-77
2022/11/20 11:09:33;;;;;;;13.00;11.70;;;2.50;99.90;;;;;;5075531;28;20973;-77
2022/11/20 11:12:01;;;;;;;15.93;13.27;;;2.50;99.90;;;;;;5075210;28;20417;-77
2022/11/20 11:14:44;;;;;;;13.90;12.50;;;2.50;99.90;;;;;;5075748;28;20479;-77
2022/11/20 11:17:26;;;;;;;14.13;12.70;;;2.50;99.90;;;;;;5075358;28;20424;-77
2022/11/20 11:20:02;;;;;;;12.67;11.37;;;2.50;99.90;;;;;;5073173;28;20440;-77
2022/11/20 11:22:32;;;;;;;12.40;11.20;;;2.50;99.90;;;;;;5074151;28;20473;-77
2022/11/20 11:25:02;;;;;;;11.90;10.70;;;2.50;99.90;;;;;;5075038;28;20439;-77
2022/11/20 11:27:30;;;;;;;13.77;12.27;;;2.50;99.90;;;;;;5073937;28;20437;-77
2022/11/20 11:30:14;;;;;;;14.00;12.70;;;2.50;99.90;;;;;;5073800;28;20437;-77
2022/11/20 11:32:42;;;;;;;12.63;11.33;;;2.50;99.90;;;;;;5073885;28;20514;-77
2022/11/20 11:35:23;;;;;;;11.73;10.40;;;2.50;99.90;;;;;;5075064;28;20983;-77
2022/11/20 11:37:53;;;;;;;11.13;10.03;;;2.50;99.90;;;;;;5075139;28;20432;-77
2022/11/20 11:40:26;;;;;;;10.97;9.90;;;2.50;99.90;;;;;;5075840;28;20417;-77
2022/11/20 11:42:58;;;;;;;11.47;10.37;;;2.40;99.90;;;;;;5073472;28;20482;-77
2022/11/20 11:45:26;;;;;;;11.03;9.93;;;2.40;99.90;;;;;;5073504;28;20434;-77
2022/11/20 11:47:57;;;;;;;12.60;11.40;;;2.40;99.90;;;;;;5073762;28;20934;-77
2022/11/20 11:50:26;;;;;;;12.37;11.17;;;2.30;99.90;;;;;;5077301;28;20434;-77
2022/11/20 11:53:02;;;;;;;15.33;13.83;;;2.20;99.90;;;;;;5076093;28;20482;-77
2022/11/20 11:55:37;;;;;;;15.03;13.47;;;2.20;99.90;;;;;;5074178;28;20462;-77
2022/11/20 11:58:17;;;;;;;17.33;15.53;;;2.20;99.90;;;;;;5075085;28;20429;-77
2022/11/20 12:00:52;;;;;;;16.80;15.20;;;2.10;99.90;;;;;;5073402;28;20445;-77
2022/11/20 12:03:25;;;;;;;16.07;14.47;;;2.10;99.90;;;;;;5073249;28;20481;-77
2022/11/20 12:05:59;;;;;;;17.27;15.60;;;2.10;99.90;;;;;;5074252;28;20433;-77
2022/11/20 12:08:33;;;;;;;15.80;14.30;;;2.10;99.90;;;;;;5072564;28;20452;-76
2022/11/20 12:11:07;;;;;;;12.83;11.60;;;2.10;99.90;;;;;;5072205;28;20863;-77
2022/11/20 12:13:49;;;;;;;15.17;13.57;;;2.10;99.90;;;;;;5071912;28;20471;-77
2022/11/20 12:16:21;;;;;;;15.20;13.70;;;2.20;99.90;;;;;;5076408;28;20878;-79
2022/11/20 12:18:51;;;;;;;15.00;13.70;;;2.10;99.90;;;;;;5076481;28;20939;-80
2022/11/20 12:21:27;;;;;;;15.90;14.40;;;2.10;99.90;;;;;;5077564;28;20480;-80
2022/11/20 12:24:11;;;;;;;16.27;14.73;;;2.20;99.90;;;;;;5077389;28;20506;-80
2022/11/20 12:26:57;;;;;;;18.53;16.73;;;2.20;99.90;;;;;;5077136;28;20449;-80
2022/11/20 12:29:42;;;;;;;18.93;17.03;;;2.10;99.90;;;;;;5076707;28;20441;-80
2022/11/20 12:32:40;;;;;;;17.40;15.70;;;2.10;99.90;;;;;;5080174;28;20438;-80
2022/11/20 12:35:25;;;;;;;16.67;15.07;;;2.20;99.90;;;;;;5079413;28;20452;-80
2022/11/20 12:38:08;;;;;;;17.73;16.03;;;2.20;99.90;;;;;;5079779;28;20455;-80
2022/11/20 12:40:45;;;;;;;16.40;14.90;;;2.20;99.90;;;;;;5081904;28;20903;-80
2022/11/20 12:46:19;;;;;;;17.90;16.00;;;2.20;99.90;;;;;;5081400;28;20775;-80
2022/11/20 12:48:58;;;;;;;18.73;16.83;;;2.30;99.90;;;;;;5076404;28;20543;-77
2022/11/20 12:51:38;;;;;;;17.87;16.17;;;2.30;99.90;;;;;;5076730;28;20454;-79
2022/11/20 12:54:48;;;;;;;20.23;18.37;;;2.30;99.90;;;;;;5079675;28;20470;-80
2022/11/20 12:57:22;;;;;;;19.07;16.40;;;2.40;99.90;;;;;;5035567;28;20886;-80
2022/11/20 13:00:03;;;;;;;18.30;16.60;;;2.30;99.90;;;;;;5081589;28;20429;-80
2022/11/20 13:02:42;;;;;;;18.27;16.47;;;2.40;99.90;;;;;;5087896;28;20488;-80
2022/11/20 13:05:20;;;;;;;16.17;14.57;;;2.40;99.90;;;;;;5089994;28;20444;-80
2022/11/20 13:07:51;;;;;;;16.10;14.60;;;2.40;99.90;;;;;;5089574;28;20443;-79
2022/11/20 13:10:27;;;;;;;18.77;17.00;;;2.40;99.90;;;;;;5091792;28;20419;-80